sensor_id;sensor_type;location;lat;lon;timestamp;temperature;humidity
41720;DHT22;27405;53.316;-6.294;2023-04-15T00:00:46;7.40;99.90
41720;DHT22;27405;53.316;-6.294;2023-04-15T00:03:11;7.30;99.90
41720;DHT22;27405;53.316;-6.294;2023-04-15T00:05:37;7.30;99.90
41720;DHT22;27405;53.316;-6.294;2023-04-15T00:08:03;7.30;99.90
41720;DHT22;27405;53.316;-6.294;2023-04-15T00:10:29;7.30;99.90
41720;DHT22;27405;53.316;-6.294;2023-04-15T00:12:55;7.30;99.90
41720;DHT22;27405;53.316;-6.294;2023-04-15T00:15:21;7.30;99.90
41720;DHT22;27405;53.316;-6.294;2023-04-15T00:17:49;7.30;99.90
41720;DHT22;27405;53.316;-6.294;2023-04-15T00:20:16;7.30;99.90
41720;DHT22;27405;53.316;-6.294;2023-04-15T00:22:42;7.30;99.90
41720;DHT22;27405;53.316;-6.294;2023-04-15T00:25:07;7.30;99.90
41720;DHT22;27405;53.316;-6.294;2023-04-15T00:27:34;7.30;99.90
41720;DHT22;27405;53.316;-6.294;2023-04-15T00:29:59;7.30;99.90
41720;DHT22;27405;53.316;-6.294;2023-04-15T00:32:25;7.30;99.90
41720;DHT22;27405;53.316;-6.294;2023-04-15T00:34:51;7.30;99.90
41720;DHT22;27405;53.316;-6.294;2023-04-15T00:37:16;7.30;99.90
41720;DHT22;27405;53.316;-6.294;2023-04-15T00:39:42;7.20;99.90
41720;DHT22;27405;53.316;-6.294;2023-04-15T00:42:09;7.20;99.90
41720;DHT22;27405;53.316;-6.294;2023-04-15T00:44:35;7.20;99.90
41720;DHT22;27405;53.316;-6.294;2023-04-15T00:47:00;7.20;99.90
41720;DHT22;27405;53.316;-6.294;2023-04-15T00:49:28;7.20;99.90
41720;DHT22;27405;53.316;-6.294;2023-04-15T00:51:54;7.20;99.90
41720;DHT22;27405;53.316;-6.294;2023-04-15T00:54:20;7.20;99.90
41720;DHT22;27405;53.316;-6.294;2023-04-15T00:56:46;7.20;99.90
41720;DHT22;27405;53.316;-6.294;2023-04-15T00:59:13;7.20;99.90
41720;DHT22;27405;53.316;-6.294;2023-04-15T01:01:38;7.20;99.90
41720;DHT22;27405;53.316;-6.294;2023-04-15T01:04:05;7.20;99.90
41720;DHT22;27405;53.316;-6.294;2023-04-15T01:06:31;7.10;99.90
41720;DHT22;27405;53.316;-6.294;2023-04-15T01:08:58;7.10;99.90
41720;DHT22;27405;53.316;-6.294;2023-04-15T01:11:24;7.10;99.90
41720;DHT22;27405;53.316;-6.294;2023-04-15T01:13:51;7.10;99.90
41720;DHT22;27405;53.316;-6.294;2023-04-15T01:16:18;7.10;99.90
41720;DHT22;27405;53.316;-6.294;2023-04-15T01:18:44;7.00;99.90
41720;DHT22;27405;53.316;-6.294;2023-04-15T01:21:10;7.00;99.90
41720;DHT22;27405;53.316;-6.294;2023-04-15T01:23:37;7.00;99.90
41720;DHT22;27405;53.316;-6.294;2023-04-15T01:26:04;7.00;99.90
41720;DHT22;27405;53.316;-6.294;2023-04-15T01:28:31;7.00;99.90
41720;DHT22;27405;53.316;-6.294;2023-04-15T01:31:07;6.90;99.90
41720;DHT22;27405;53.316;-6.294;2023-04-15T01:33:33;6.90;99.90
41720;DHT22;27405;53.316;-6.294;2023-04-15T01:35:59;6.90;99.90
41720;DHT22;27405;53.316;-6.294;2023-04-15T01:38:26;6.90;99.90
41720;DHT22;27405;53.316;-6.294;2023-04-15T01:40:52;6.80;99.90
41720;DHT22;27405;53.316;-6.294;2023-04-15T01:43:18;6.80;99.90
41720;DHT22;27405;53.316;-6.294;2023-04-15T01:45:44;6.80;99.90
41720;DHT22;27405;53.316;-6.294;2023-04-15T01:48:10;6.80;99.90
41720;DHT22;27405;53.316;-6.294;2023-04-15T01:50:36;6.80;99.90
41720;DHT22;27405;53.316;-6.294;2023-04-15T01:53:03;6.80;99.90
41720;DHT22;27405;53.316;-6.294;2023-04-15T01:55:28;6.70;99.90
41720;DHT22;27405;53.316;-6.294;2023-04-15T01:57:55;6.80;99.90
41720;DHT22;27405;53.316;-6.294;2023-04-15T02:00:21;6.70;99.90
41720;DHT22;27405;53.316;-6.294;2023-04-15T02:02:47;6.70;99.90
41720;DHT22;27405;53.316;-6.294;2023-04-15T02:05:13;6.70;99.90
41720;DHT22;27405;53.316;-6.294;2023-04-15T02:07:44;6.70;99.90
41720;DHT22;27405;53.316;-6.294;2023-04-15T02:10:09;6.70;99.90
41720;DHT22;27405;53.316;-6.294;2023-04-15T02:12:37;6.70;99.90
41720;DHT22;27405;53.316;-6.294;2023-04-15T02:15:04;6.60;99.90
41720;DHT22;27405;53.316;-6.294;2023-04-15T02:17:36;6.70;99.90
41720;DHT22;27405;53.316;-6.294;2023-04-15T02:20:03;6.60;99.90
41720;DHT22;27405;53.316;-6.294;2023-04-15T02:22:33;6.60;99.90
41720;DHT22;27405;53.316;-6.294;2023-04-15T02:24:58;6.60;99.90
41720;DHT22;27405;53.316;-6.294;2023-04-15T02:27:24;6.70;99.90
41720;DHT22;27405;53.316;-6.294;2023-04-15T02:29:50;6.60;99.90
41720;DHT22;27405;53.316;-6.294;2023-04-15T02:32:16;6.60;99.90
41720;DHT22;27405;53.316;-6.294;2023-04-15T02:34:43;6.60;99.90
41720;DHT22;27405;53.316;-6.294;2023-04-15T02:37:09;6.60;99.90
41720;DHT22;27405;53.316;-6.294;2023-04-15T02:39:35;6.60;99.90
41720;DHT22;27405;53.316;-6.294;2023-04-15T02:42:01;6.60;99.90
41720;DHT22;27405;53.316;-6.294;2023-04-15T02:44:27;6.60;99.90
41720;DHT22;27405;53.316;-6.294;2023-04-15T02:46:53;6.50;99.90
41720;DHT22;27405;53.316;-6.294;2023-04-15T02:49:22;6.50;99.90
41720;DHT22;27405;53.316;-6.294;2023-04-15T02:51:48;6.50;99.90
41720;DHT22;27405;53.316;-6.294;2023-04-15T02:54:21;6.50;99.90
41720;DHT22;27405;53.316;-6.294;2023-04-15T02:56:50;6.50;99.90
41720;DHT22;27405;53.316;-6.294;2023-04-15T02:59:19;6.50;99.90
41720;DHT22;27405;53.316;-6.294;2023-04-15T03:01:45;6.50;99.90
41720;DHT22;27405;53.316;-6.294;2023-04-15T03:04:11;6.50;99.90
41720;DHT22;27405;53.316;-6.294;2023-04-15T03:06:37;6.50;99.90
41720;DHT22;27405;53.316;-6.294;2023-04-15T03:09:03;6.40;99.90
41720;DHT22;27405;53.316;-6.294;2023-04-15T03:11:29;6.40;99.90
41720;DHT22;27405;53.316;-6.294;2023-04-15T03:13:56;6.40;99.90
41720;DHT22;27405;53.316;-6.294;2023-04-15T03:16:23;6.40;99.90
41720;DHT22;27405;53.316;-6.294;2023-04-15T03:18:48;6.40;99.90
41720;DHT22;27405;53.316;-6.294;2023-04-15T03:21:14;6.40;99.90
41720;DHT22;27405;53.316;-6.294;2023-04-15T03:23:40;6.40;99.90
41720;DHT22;27405;53.316;-6.294;2023-04-15T03:26:06;6.40;99.90
41720;DHT22;27405;53.316;-6.294;2023-04-15T03:28:31;6.40;99.90
41720;DHT22;27405;53.316;-6.294;2023-04-15T03:30:58;6.40;99.90
41720;DHT22;27405;53.316;-6.294;2023-04-15T03:33:23;6.40;99.90
41720;DHT22;27405;53.316;-6.294;2023-04-15T03:35:50;6.40;99.90
41720;DHT22;27405;53.316;-6.294;2023-04-15T03:38:16;6.40;99.90
41720;DHT22;27405;53.316;-6.294;2023-04-15T03:40:42;6.40;99.90
41720;DHT22;27405;53.316;-6.294;2023-04-15T03:43:08;6.40;99.90
41720;DHT22;27405;53.316;-6.294;2023-04-15T03:45:33;6.40;99.90
41720;DHT22;27405;53.316;-6.294;2023-04-15T03:47:59;6.40;99.90
41720;DHT22;27405;53.316;-6.294;2023-04-15T03:50:25;6.30;99.90
41720;DHT22;27405;53.316;-6.294;2023-04-15T03:52:50;6.30;99.90
41720;DHT22;27405;53.316;-6.294;2023-04-15T03:55:16;6.30;99.90
41720;DHT22;27405;53.316;-6.294;2023-04-15T03:57:42;6.30;99.90
41720;DHT22;27405;53.316;-6.294;2023-04-15T04:00:08;6.30;99.90
41720;DHT22;27405;53.316;-6.294;2023-04-15T04:02:35;6.30;99.90
41720;DHT22;27405;53.316;-6.294;2023-04-15T04:05:01;6.30;99.90
41720;DHT22;27405;53.316;-6.294;2023-04-15T04:07:26;6.20;99.90
41720;DHT22;27405;53.316;-6.294;2023-04-15T04:09:52;6.20;99.90
41720;DHT22;27405;53.316;-6.294;2023-04-15T04:12:18;6.20;99.90
41720;DHT22;27405;53.316;-6.294;2023-04-15T04:14:43;6.20;99.90
41720;DHT22;27405;53.316;-6.294;2023-04-15T04:17:10;6.20;99.90
41720;DHT22;27405;53.316;-6.294;2023-04-15T04:19:36;6.20;99.90
41720;DHT22;27405;53.316;-6.294;2023-04-15T04:22:01;6.20;99.90
41720;DHT22;27405;53.316;-6.294;2023-04-15T04:24:27;6.10;99.90
41720;DHT22;27405;53.316;-6.294;2023-04-15T04:26:52;6.20;99.90
41720;DHT22;27405;53.316;-6.294;2023-04-15T04:29:18;6.10;99.90
41720;DHT22;27405;53.316;-6.294;2023-04-15T04:31:44;6.10;99.90
41720;DHT22;27405;53.316;-6.294;2023-04-15T04:34:10;6.10;99.90
41720;DHT22;27405;53.316;-6.294;2023-04-15T04:36:36;6.10;99.90
41720;DHT22;27405;53.316;-6.294;2023-04-15T04:39:01;6.00;99.90
41720;DHT22;27405;53.316;-6.294;2023-04-15T04:41:27;6.00;99.90
41720;DHT22;27405;53.316;-6.294;2023-04-15T04:43:53;6.00;99.90
41720;DHT22;27405;53.316;-6.294;2023-04-15T04:46:18;6.00;99.90
41720;DHT22;27405;53.316;-6.294;2023-04-15T04:48:44;5.90;99.90
41720;DHT22;27405;53.316;-6.294;2023-04-15T04:51:10;5.90;99.90
41720;DHT22;27405;53.316;-6.294;2023-04-15T04:53:36;5.90;99.90
41720;DHT22;27405;53.316;-6.294;2023-04-15T04:56:02;5.90;99.90
41720;DHT22;27405;53.316;-6.294;2023-04-15T04:58:28;5.80;99.90
41720;DHT22;27405;53.316;-6.294;2023-04-15T05:00:54;5.80;99.90
41720;DHT22;27405;53.316;-6.294;2023-04-15T05:03:20;5.80;99.90
41720;DHT22;27405;53.316;-6.294;2023-04-15T05:05:46;5.80;99.90
41720;DHT22;27405;53.316;-6.294;2023-04-15T05:08:14;5.80;99.90
41720;DHT22;27405;53.316;-6.294;2023-04-15T05:10:39;5.80;99.90
41720;DHT22;27405;53.316;-6.294;2023-04-15T05:13:05;5.80;99.90
41720;DHT22;27405;53.316;-6.294;2023-04-15T05:15:31;5.70;99.90
41720;DHT22;27405;53.316;-6.294;2023-04-15T05:17:57;5.70;99.90
41720;DHT22;27405;53.316;-6.294;2023-04-15T05:20:23;5.70;99.90
41720;DHT22;27405;53.316;-6.294;2023-04-15T05:22:49;5.70;99.90
41720;DHT22;27405;53.316;-6.294;2023-04-15T05:25:14;5.70;99.90
41720;DHT22;27405;53.316;-6.294;2023-04-15T05:27:40;5.70;99.90
41720;DHT22;27405;53.316;-6.294;2023-04-15T05:30:07;5.70;99.90
41720;DHT22;27405;53.316;-6.294;2023-04-15T05:32:33;5.60;99.90
41720;DHT22;27405;53.316;-6.294;2023-04-15T05:34:59;5.60;99.90
41720;DHT22;27405;53.316;-6.294;2023-04-15T05:37:24;5.60;99.90
41720;DHT22;27405;53.316;-6.294;2023-04-15T05:39:50;5.60;99.90
41720;DHT22;27405;53.316;-6.294;2023-04-15T05:42:16;5.60;99.90
41720;DHT22;27405;53.316;-6.294;2023-04-15T05:44:42;5.60;99.90
41720;DHT22;27405;53.316;-6.294;2023-04-15T05:47:08;5.60;99.90
41720;DHT22;27405;53.316;-6.294;2023-04-15T05:49:34;5.60;99.90
41720;DHT22;27405;53.316;-6.294;2023-04-15T05:52:00;5.60;99.90
41720;DHT22;27405;53.316;-6.294;2023-04-15T05:54:26;5.60;99.90
41720;DHT22;27405;53.316;-6.294;2023-04-15T05:56:52;5.60;99.90
41720;DHT22;27405;53.316;-6.294;2023-04-15T05:59:18;5.70;99.90
41720;DHT22;27405;53.316;-6.294;2023-04-15T06:01:44;5.70;99.90
41720;DHT22;27405;53.316;-6.294;2023-04-15T06:04:10;5.70;99.90
41720;DHT22;27405;53.316;-6.294;2023-04-15T06:06:36;5.70;99.90
41720;DHT22;27405;53.316;-6.294;2023-04-15T06:09:02;5.70;99.90
41720;DHT22;27405;53.316;-6.294;2023-04-15T06:11:28;5.70;99.90
41720;DHT22;27405;53.316;-6.294;2023-04-15T06:13:54;5.80;99.90
41720;DHT22;27405;53.316;-6.294;2023-04-15T06:16:19;5.80;99.90
41720;DHT22;27405;53.316;-6.294;2023-04-15T06:18:45;5.80;99.90
41720;DHT22;27405;53.316;-6.294;2023-04-15T06:21:11;5.80;99.90
41720;DHT22;27405;53.316;-6.294;2023-04-15T06:23:37;5.80;99.90
41720;DHT22;27405;53.316;-6.294;2023-04-15T06:26:05;5.80;99.90
41720;DHT22;27405;53.316;-6.294;2023-04-15T06:28:31;5.90;99.90
41720;DHT22;27405;53.316;-6.294;2023-04-15T06:30:57;5.90;99.90
41720;DHT22;27405;53.316;-6.294;2023-04-15T06:33:22;6.00;99.90
41720;DHT22;27405;53.316;-6.294;2023-04-15T06:35:48;6.00;99.90
41720;DHT22;27405;53.316;-6.294;2023-04-15T06:38:14;6.00;99.90
41720;DHT22;27405;53.316;-6.294;2023-04-15T06:40:40;6.10;99.90
41720;DHT22;27405;53.316;-6.294;2023-04-15T06:43:06;6.10;99.90
41720;DHT22;27405;53.316;-6.294;2023-04-15T06:45:32;6.20;99.90
41720;DHT22;27405;53.316;-6.294;2023-04-15T06:47:58;6.20;99.90
41720;DHT22;27405;53.316;-6.294;2023-04-15T06:50:24;6.30;99.90
41720;DHT22;27405;53.316;-6.294;2023-04-15T06:52:49;6.30;99.90
41720;DHT22;27405;53.316;-6.294;2023-04-15T06:55:15;6.40;99.90
41720;DHT22;27405;53.316;-6.294;2023-04-15T06:57:41;6.40;99.90
41720;DHT22;27405;53.316;-6.294;2023-04-15T07:00:07;6.50;99.90
41720;DHT22;27405;53.316;-6.294;2023-04-15T07:02:35;6.50;99.90
41720;DHT22;27405;53.316;-6.294;2023-04-15T07:05:01;6.60;99.90
41720;DHT22;27405;53.316;-6.294;2023-04-15T07:07:27;6.70;99.90
41720;DHT22;27405;53.316;-6.294;2023-04-15T07:09:53;6.70;99.90
41720;DHT22;27405;53.316;-6.294;2023-04-15T07:12:19;6.70;99.90
41720;DHT22;27405;53.316;-6.294;2023-04-15T07:14:45;6.80;99.90
41720;DHT22;27405;53.316;-6.294;2023-04-15T07:17:11;6.80;99.90
41720;DHT22;27405;53.316;-6.294;2023-04-15T07:19:36;6.80;99.90
41720;DHT22;27405;53.316;-6.294;2023-04-15T07:22:02;6.90;99.90
41720;DHT22;27405;53.316;-6.294;2023-04-15T07:24:28;7.00;99.90
41720;DHT22;27405;53.316;-6.294;2023-04-15T07:26:54;7.00;99.90
41720;DHT22;27405;53.316;-6.294;2023-04-15T07:29:22;7.10;99.90
41720;DHT22;27405;53.316;-6.294;2023-04-15T07:31:48;7.10;99.90
41720;DHT22;27405;53.316;-6.294;2023-04-15T07:34:14;7.20;99.90
41720;DHT22;27405;53.316;-6.294;2023-04-15T07:36:41;7.20;99.90
41720;DHT22;27405;53.316;-6.294;2023-04-15T07:39:06;7.30;99.90
41720;DHT22;27405;53.316;-6.294;2023-04-15T07:41:32;7.40;99.90
41720;DHT22;27405;53.316;-6.294;2023-04-15T07:43:58;7.50;99.90
41720;DHT22;27405;53.316;-6.294;2023-04-15T07:46:24;7.50;99.90
41720;DHT22;27405;53.316;-6.294;2023-04-15T07:48:52;7.60;99.90
41720;DHT22;27405;53.316;-6.294;2023-04-15T07:51:18;7.60;99.90
41720;DHT22;27405;53.316;-6.294;2023-04-15T07:53:43;7.70;99.90
41720;DHT22;27405;53.316;-6.294;2023-04-15T07:56:09;7.70;99.90
41720;DHT22;27405;53.316;-6.294;2023-04-15T07:58:35;7.70;99.90
41720;DHT22;27405;53.316;-6.294;2023-04-15T08:01:03;7.80;99.90
41720;DHT22;27405;53.316;-6.294;2023-04-15T08:03:28;7.80;99.90
41720;DHT22;27405;53.316;-6.294;2023-04-15T08:05:54;7.80;99.90
41720;DHT22;27405;53.316;-6.294;2023-04-15T08:08:20;7.90;99.90
41720;DHT22;27405;53.316;-6.294;2023-04-15T08:10:46;7.90;99.90
41720;DHT22;27405;53.316;-6.294;2023-04-15T08:13:12;8.00;99.90
41720;DHT22;27405;53.316;-6.294;2023-04-15T08:15:37;8.00;99.90
41720;DHT22;27405;53.316;-6.294;2023-04-15T08:18:03;8.00;99.90
41720;DHT22;27405;53.316;-6.294;2023-04-15T08:20:29;8.10;99.90
41720;DHT22;27405;53.316;-6.294;2023-04-15T08:22:55;8.10;99.90
41720;DHT22;27405;53.316;-6.294;2023-04-15T08:25:20;8.20;99.90
41720;DHT22;27405;53.316;-6.294;2023-04-15T08:27:46;8.30;99.90
41720;DHT22;27405;53.316;-6.294;2023-04-15T08:30:12;8.30;99.90
41720;DHT22;27405;53.316;-6.294;2023-04-15T08:32:39;8.30;99.90
41720;DHT22;27405;53.316;-6.294;2023-04-15T08:35:05;8.40;99.90
41720;DHT22;27405;53.316;-6.294;2023-04-15T08:37:30;8.40;99.90
41720;DHT22;27405;53.316;-6.294;2023-04-15T08:39:56;8.50;99.90
41720;DHT22;27405;53.316;-6.294;2023-04-15T08:42:43;8.50;99.90
41720;DHT22;27405;53.316;-6.294;2023-04-15T08:45:10;8.60;99.90
41720;DHT22;27405;53.316;-6.294;2023-04-15T08:47:37;8.70;99.90
41720;DHT22;27405;53.316;-6.294;2023-04-15T08:50:04;8.80;99.90
41720;DHT22;27405;53.316;-6.294;2023-04-15T08:52:31;8.80;99.90
41720;DHT22;27405;53.316;-6.294;2023-04-15T08:54:58;8.90;99.90
41720;DHT22;27405;53.316;-6.294;2023-04-15T08:57:28;9.00;99.90
41720;DHT22;27405;53.316;-6.294;2023-04-15T08:59:57;9.10;99.90
41720;DHT22;27405;53.316;-6.294;2023-04-15T09:02:24;9.10;99.90
41720;DHT22;27405;53.316;-6.294;2023-04-15T09:04:51;9.20;99.90
41720;DHT22;27405;53.316;-6.294;2023-04-15T09:07:17;9.30;99.90
41720;DHT22;27405;53.316;-6.294;2023-04-15T09:09:43;9.30;99.90
41720;DHT22;27405;53.316;-6.294;2023-04-15T09:12:09;9.40;99.90
41720;DHT22;27405;53.316;-6.294;2023-04-15T09:14:36;9.40;99.90
41720;DHT22;27405;53.316;-6.294;2023-04-15T09:17:03;9.40;99.90
41720;DHT22;27405;53.316;-6.294;2023-04-15T09:19:30;9.50;99.90
41720;DHT22;27405;53.316;-6.294;2023-04-15T09:21:57;9.50;99.90
41720;DHT22;27405;53.316;-6.294;2023-04-15T09:24:24;9.60;99.90
41720;DHT22;27405;53.316;-6.294;2023-04-15T09:26:52;9.60;99.90
41720;DHT22;27405;53.316;-6.294;2023-04-15T09:29:19;9.70;99.90
41720;DHT22;27405;53.316;-6.294;2023-04-15T09:31:44;9.70;99.90
41720;DHT22;27405;53.316;-6.294;2023-04-15T09:34:10;9.80;99.90
41720;DHT22;27405;53.316;-6.294;2023-04-15T09:36:55;9.90;99.90
41720;DHT22;27405;53.316;-6.294;2023-04-15T09:39:22;10.00;99.90
41720;DHT22;27405;53.316;-6.294;2023-04-15T09:42:04;10.00;99.90
41720;DHT22;27405;53.316;-6.294;2023-04-15T09:44:31;10.10;99.90
41720;DHT22;27405;53.316;-6.294;2023-04-15T09:46:56;10.20;99.90
41720;DHT22;27405;53.316;-6.294;2023-04-15T09:49:22;10.20;99.90
41720;DHT22;27405;53.316;-6.294;2023-04-15T09:51:48;10.20;99.90
41720;DHT22;27405;53.316;-6.294;2023-04-15T09:54:18;10.30;99.90
41720;DHT22;27405;53.316;-6.294;2023-04-15T09:56:46;10.30;99.90
41720;DHT22;27405;53.316;-6.294;2023-04-15T09:59:11;10.30;99.90
41720;DHT22;27405;53.316;-6.294;2023-04-15T10:01:37;10.30;99.90
41720;DHT22;27405;53.316;-6.294;2023-04-15T10:04:05;10.40;99.90
41720;DHT22;27405;53.316;-6.294;2023-04-15T10:06:31;10.40;99.90
41720;DHT22;27405;53.316;-6.294;2023-04-15T10:08:58;10.50;99.90
41720;DHT22;27405;53.316;-6.294;2023-04-15T10:11:28;10.50;99.90
41720;DHT22;27405;53.316;-6.294;2023-04-15T10:13:55;10.60;99.90
41720;DHT22;27405;53.316;-6.294;2023-04-15T10:16:22;10.60;99.90
41720;DHT22;27405;53.316;-6.294;2023-04-15T10:18:55;10.70;99.90
41720;DHT22;27405;53.316;-6.294;2023-04-15T10:21:21;10.70;99.90
41720;DHT22;27405;53.316;-6.294;2023-04-15T10:23:48;10.80;99.90
41720;DHT22;27405;53.316;-6.294;2023-04-15T10:26:15;10.90;99.90
41720;DHT22;27405;53.316;-6.294;2023-04-15T10:28:42;10.90;99.90
41720;DHT22;27405;53.316;-6.294;2023-04-15T10:31:11;11.00;99.90
41720;DHT22;27405;53.316;-6.294;2023-04-15T10:33:37;11.10;99.90
41720;DHT22;27405;53.316;-6.294;2023-04-15T10:36:04;11.20;99.90
41720;DHT22;27405;53.316;-6.294;2023-04-15T10:38:35;11.20;99.90
41720;DHT22;27405;53.316;-6.294;2023-04-15T10:44:03;11.40;99.90
41720;DHT22;27405;53.316;-6.294;2023-04-15T10:46:50;11.60;99.90
41720;DHT22;27405;53.316;-6.294;2023-04-15T10:49:24;11.80;99.90
41720;DHT22;27405;53.316;-6.294;2023-04-15T10:52:00;11.90;99.90
41720;DHT22;27405;53.316;-6.294;2023-04-15T10:59:28;12.20;99.90
41720;DHT22;27405;53.316;-6.294;2023-04-15T11:02:06;12.20;99.90
41720;DHT22;27405;53.316;-6.294;2023-04-15T11:10:01;12.50;99.90
41720;DHT22;27405;53.316;-6.294;2023-04-15T11:12:36;12.60;99.90
41720;DHT22;27405;53.316;-6.294;2023-04-15T11:15:37;12.70;99.90
41720;DHT22;27405;53.316;-6.294;2023-04-15T11:18:19;12.80;99.90
41720;DHT22;27405;53.316;-6.294;2023-04-15T11:20:57;12.80;99.90
41720;DHT22;27405;53.316;-6.294;2023-04-15T11:23:42;13.00;99.90
41720;DHT22;27405;53.316;-6.294;2023-04-15T11:26:11;13.10;99.90
41720;DHT22;27405;53.316;-6.294;2023-04-15T11:28:39;13.10;99.90
41720;DHT22;27405;53.316;-6.294;2023-04-15T11:33:32;13.30;99.90
41720;DHT22;27405;53.316;-6.294;2023-04-15T11:35:58;13.40;99.90
41720;DHT22;27405;53.316;-6.294;2023-04-15T11:38:24;13.50;99.90
41720;DHT22;27405;53.316;-6.294;2023-04-15T11:40:50;13.60;99.90
41720;DHT22;27405;53.316;-6.294;2023-04-15T11:43:19;13.60;99.80
41720;DHT22;27405;53.316;-6.294;2023-04-15T11:45:59;13.60;99.70
41720;DHT22;27405;53.316;-6.294;2023-04-15T11:48:30;13.70;99.80
41720;DHT22;27405;53.316;-6.294;2023-04-15T11:51:01;13.80;99.40
41720;DHT22;27405;53.316;-6.294;2023-04-15T11:56:17;13.90;99.30
41720;DHT22;27405;53.316;-6.294;2023-04-15T11:58:43;14.00;99.10
41720;DHT22;27405;53.316;-6.294;2023-04-15T12:01:10;14.10;98.90
41720;DHT22;27405;53.316;-6.294;2023-04-15T12:03:41;14.10;98.80
41720;DHT22;27405;53.316;-6.294;2023-04-15T12:06:17;14.20;98.60
41720;DHT22;27405;53.316;-6.294;2023-04-15T12:11:32;14.30;98.10
41720;DHT22;27405;53.316;-6.294;2023-04-15T12:16:57;14.40;98.00
41720;DHT22;27405;53.316;-6.294;2023-04-15T12:19:26;14.50;97.70
41720;DHT22;27405;53.316;-6.294;2023-04-15T12:21:57;14.40;97.60
41720;DHT22;27405;53.316;-6.294;2023-04-15T12:24:24;14.40;97.70
41720;DHT22;27405;53.316;-6.294;2023-04-15T12:26:52;14.50;97.80
41720;DHT22;27405;53.316;-6.294;2023-04-15T12:29:19;14.60;97.80
41720;DHT22;27405;53.316;-6.294;2023-04-15T12:34:32;14.80;97.40
41720;DHT22;27405;53.316;-6.294;2023-04-15T12:36:59;15.00;97.60
41720;DHT22;27405;53.316;-6.294;2023-04-15T12:39:27;15.20;97.40
41720;DHT22;27405;53.316;-6.294;2023-04-15T12:41:53;15.30;96.80
41720;DHT22;27405;53.316;-6.294;2023-04-15T12:44:20;15.40;96.70
41720;DHT22;27405;53.316;-6.294;2023-04-15T12:46:46;15.50;96.30
41720;DHT22;27405;53.316;-6.294;2023-04-15T12:49:12;15.50;96.20
41720;DHT22;27405;53.316;-6.294;2023-04-15T12:51:39;15.60;96.10
41720;DHT22;27405;53.316;-6.294;2023-04-15T12:54:05;15.60;95.80
41720;DHT22;27405;53.316;-6.294;2023-04-15T12:56:31;15.60;95.60
41720;DHT22;27405;53.316;-6.294;2023-04-15T12:58:56;15.70;95.40
41720;DHT22;27405;53.316;-6.294;2023-04-15T13:01:22;15.60;95.20
41720;DHT22;27405;53.316;-6.294;2023-04-15T13:03:47;15.60;95.00
41720;DHT22;27405;53.316;-6.294;2023-04-15T13:06:15;15.60;95.00
41720;DHT22;27405;53.316;-6.294;2023-04-15T13:08:41;15.60;95.20
41720;DHT22;27405;53.316;-6.294;2023-04-15T13:11:06;15.60;95.10
41720;DHT22;27405;53.316;-6.294;2023-04-15T13:13:32;15.70;94.90
41720;DHT22;27405;53.316;-6.294;2023-04-15T13:15:58;15.70;94.90
41720;DHT22;27405;53.316;-6.294;2023-04-15T13:18:24;15.80;94.90
41720;DHT22;27405;53.316;-6.294;2023-04-15T13:20:50;15.90;95.20
41720;DHT22;27405;53.316;-6.294;2023-04-15T13:23:16;16.10;95.00
41720;DHT22;27405;53.316;-6.294;2023-04-15T13:25:42;16.20;94.70
41720;DHT22;27405;53.316;-6.294;2023-04-15T13:28:09;16.30;94.50
41720;DHT22;27405;53.316;-6.294;2023-04-15T13:30:37;16.40;94.30
41720;DHT22;27405;53.316;-6.294;2023-04-15T13:33:03;16.50;93.80
41720;DHT22;27405;53.316;-6.294;2023-04-15T13:35:28;16.50;93.90
41720;DHT22;27405;53.316;-6.294;2023-04-15T13:37:54;16.60;93.70
41720;DHT22;27405;53.316;-6.294;2023-04-15T13:40:20;16.70;93.40
41720;DHT22;27405;53.316;-6.294;2023-04-15T13:42:46;16.80;93.00
41720;DHT22;27405;53.316;-6.294;2023-04-15T13:45:12;16.80;92.80
41720;DHT22;27405;53.316;-6.294;2023-04-15T13:47:38;16.80;92.60
41720;DHT22;27405;53.316;-6.294;2023-04-15T13:50:05;16.90;92.30
41720;DHT22;27405;53.316;-6.294;2023-04-15T13:52:31;16.90;92.20
41720;DHT22;27405;53.316;-6.294;2023-04-15T13:54:57;16.90;91.90
41720;DHT22;27405;53.316;-6.294;2023-04-15T13:57:23;16.90;91.70
41720;DHT22;27405;53.316;-6.294;2023-04-15T13:59:48;17.00;91.60
41720;DHT22;27405;53.316;-6.294;2023-04-15T14:02:14;16.90;91.00
41720;DHT22;27405;53.316;-6.294;2023-04-15T14:04:40;16.90;90.90
41720;DHT22;27405;53.316;-6.294;2023-04-15T14:07:05;16.80;90.60
41720;DHT22;27405;53.316;-6.294;2023-04-15T14:09:31;16.80;90.90
41720;DHT22;27405;53.316;-6.294;2023-04-15T14:11:57;16.90;90.60
41720;DHT22;27405;53.316;-6.294;2023-04-15T14:14:24;16.90;90.50
41720;DHT22;27405;53.316;-6.294;2023-04-15T14:16:50;16.90;90.30
41720;DHT22;27405;53.316;-6.294;2023-04-15T14:19:15;16.90;90.20
41720;DHT22;27405;53.316;-6.294;2023-04-15T14:21:41;17.00;89.80
41720;DHT22;27405;53.316;-6.294;2023-04-15T14:24:07;17.10;88.40
41720;DHT22;27405;53.316;-6.294;2023-04-15T14:26:33;17.10;88.50
41720;DHT22;27405;53.316;-6.294;2023-04-15T14:28:58;17.10;86.90
41720;DHT22;27405;53.316;-6.294;2023-04-15T14:31:25;17.10;86.60
41720;DHT22;27405;53.316;-6.294;2023-04-15T14:33:50;17.00;86.80
41720;DHT22;27405;53.316;-6.294;2023-04-15T14:36:16;17.00;86.70
41720;DHT22;27405;53.316;-6.294;2023-04-15T14:38:42;17.00;86.20
41720;DHT22;27405;53.316;-6.294;2023-04-15T14:41:08;16.90;85.80
41720;DHT22;27405;53.316;-6.294;2023-04-15T14:43:34;16.80;84.60
41720;DHT22;27405;53.316;-6.294;2023-04-15T14:46:00;16.60;84.70
41720;DHT22;27405;53.316;-6.294;2023-04-15T14:48:26;16.60;84.20
41720;DHT22;27405;53.316;-6.294;2023-04-15T14:50:52;16.50;84.10
41720;DHT22;27405;53.316;-6.294;2023-04-15T14:53:18;16.50;83.50
41720;DHT22;27405;53.316;-6.294;2023-04-15T14:55:44;16.30;83.20
41720;DHT22;27405;53.316;-6.294;2023-04-15T14:58:10;16.30;82.90
41720;DHT22;27405;53.316;-6.294;2023-04-15T15:00:37;16.20;82.50
41720;DHT22;27405;53.316;-6.294;2023-04-15T15:03:09;16.20;82.20
41720;DHT22;27405;53.316;-6.294;2023-04-15T15:05:40;16.10;81.80
41720;DHT22;27405;53.316;-6.294;2023-04-15T15:08:07;16.10;81.60
41720;DHT22;27405;53.316;-6.294;2023-04-15T15:10:34;16.10;81.50
41720;DHT22;27405;53.316;-6.294;2023-04-15T15:13:01;16.00;81.20
41720;DHT22;27405;53.316;-6.294;2023-04-15T15:15:27;16.00;80.80
41720;DHT22;27405;53.316;-6.294;2023-04-15T15:17:53;16.00;80.70
41720;DHT22;27405;53.316;-6.294;2023-04-15T15:20:18;15.90;80.50
41720;DHT22;27405;53.316;-6.294;2023-04-15T15:22:44;15.80;80.50
41720;DHT22;27405;53.316;-6.294;2023-04-15T15:25:10;15.70;80.50
41720;DHT22;27405;53.316;-6.294;2023-04-15T15:27:36;15.60;80.60
41720;DHT22;27405;53.316;-6.294;2023-04-15T15:30:02;15.60;80.90
41720;DHT22;27405;53.316;-6.294;2023-04-15T15:32:28;15.50;80.80
41720;DHT22;27405;53.316;-6.294;2023-04-15T15:34:53;15.40;80.70
41720;DHT22;27405;53.316;-6.294;2023-04-15T15:37:19;15.30;80.80
41720;DHT22;27405;53.316;-6.294;2023-04-15T15:39:45;15.20;81.10
41720;DHT22;27405;53.316;-6.294;2023-04-15T15:42:11;15.10;81.20
41720;DHT22;27405;53.316;-6.294;2023-04-15T15:44:36;15.10;81.50
41720;DHT22;27405;53.316;-6.294;2023-04-15T15:47:03;15.00;81.60
41720;DHT22;27405;53.316;-6.294;2023-04-15T15:49:29;15.00;82.00